createdAt,value
2018-12-19T00:02:06.461Z,98555.13
2018-12-19T00:04:17.279Z,98559.47
2018-12-19T00:06:28.128Z,98549.95
2018-12-19T00:08:38.977Z,98547.27
2018-12-19T00:10:49.803Z,98540.44
2018-12-19T00:13:00.658Z,98537.54
2018-12-19T00:15:11.715Z,98532.97
2018-12-19T00:17:22.598Z,98527.85
2018-12-19T00:19:33.412Z,98536.59
2018-12-19T00:21:44.290Z,98537.63
2018-12-19T00:23:55.184Z,98539.47
2018-12-19T00:26:06.004Z,98531.06
2018-12-19T00:28:17.739Z,98527.77
2018-12-19T00:30:28.598Z,98531.75
2018-12-19T00:32:39.443Z,98528.84
2018-12-19T00:34:50.294Z,98530.18
2018-12-19T00:37:01.150Z,98528.96
2018-12-19T00:39:11.984Z,98526.54
2018-12-19T00:41:23.682Z,98517.63
2018-12-19T00:43:34.628Z,98522.27
2018-12-19T00:45:45.489Z,98514.97
2018-12-19T00:47:56.324Z,98517.73
2018-12-19T00:50:07.313Z,98517.82
2018-12-19T00:52:18.162Z,98510.50
2018-12-19T00:54:29.112Z,98516.05
2018-12-19T00:56:39.937Z,98517.28
2018-12-19T00:58:50.818Z,98515.95
2018-12-19T01:01:01.636Z,98510.00
2018-12-19T01:03:12.499Z,98515.56
2018-12-19T01:05:23.394Z,98519.84
2018-12-19T01:07:34.232Z,98525.31
2018-12-19T01:09:45.104Z,98525.91
2018-12-19T01:11:55.934Z,98533.34
2018-12-19T01:14:06.947Z,98520.25
2018-12-19T01:16:17.790Z,98530.78
2018-12-19T01:18:28.627Z,98533.23
2018-12-19T01:20:39.473Z,98527.53
2018-12-19T01:22:50.300Z,98530.32
2018-12-19T01:25:01.153Z,98528.05
2018-12-19T01:27:11.993Z,98530.16
2018-12-19T01:29:23.710Z,98532.63
2018-12-19T01:31:35.467Z,98525.83
2018-12-19T01:33:46.313Z,98528.79
2018-12-19T01:35:57.149Z,98530.80
2018-12-19T01:38:07.956Z,98530.44
2018-12-19T01:40:18.822Z,98528.83
2018-12-19T01:42:29.648Z,98528.50
2018-12-19T01:44:40.639Z,98529.27
2018-12-19T01:46:51.504Z,98519.41
2018-12-19T01:49:02.345Z,98515.47
2018-12-19T01:51:13.284Z,98514.30
2018-12-19T01:53:24.159Z,98513.52
2018-12-19T01:55:35.132Z,98511.69
2018-12-19T01:57:45.969Z,98507.80
2018-12-19T01:59:56.784Z,98513.70
2018-12-19T02:02:07.682Z,98516.55
2018-12-19T02:04:18.496Z,98513.36
2018-12-19T02:06:30.156Z,98498.98
2018-12-19T02:08:41.049Z,98494.82
2018-12-19T02:10:51.896Z,98488.03
2018-12-19T02:13:02.861Z,98496.88
2018-12-19T02:15:13.703Z,98478.00
2018-12-19T02:17:24.616Z,98472.94
2018-12-19T02:19:36.442Z,98481.84
2018-12-19T02:21:47.288Z,98481.30
2018-12-19T02:23:58.115Z,98495.78
2018-12-19T02:26:09.065Z,98492.53
2018-12-19T02:28:19.896Z,98494.66
2018-12-19T02:30:30.852Z,98484.70
2018-12-19T02:32:41.796Z,98481.20
2018-12-19T02:34:52.626Z,98492.77
2018-12-19T02:37:03.460Z,98524.34
2018-12-19T02:39:14.277Z,98520.83
2018-12-19T02:41:25.235Z,98510.09
2018-12-19T02:43:36.077Z,98511.70
2018-12-19T02:45:46.909Z,98504.02
2018-12-19T02:47:57.755Z,98481.85
2018-12-19T02:50:08.584Z,98480.91
2018-12-19T02:52:19.426Z,98479.19
2018-12-19T02:54:30.411Z,98486.59
2018-12-19T02:56:41.256Z,98487.48
2018-12-19T02:58:52.088Z,98489.26
2018-12-19T03:01:02.914Z,98487.69
2018-12-19T03:03:13.852Z,98485.97
2018-12-19T03:05:24.701Z,98496.20
2018-12-19T03:07:35.619Z,98493.16
2018-12-19T03:09:46.562Z,98488.88
2018-12-19T03:11:57.395Z,98488.36
2018-12-19T03:14:08.226Z,98483.91
2018-12-19T03:16:19.308Z,98484.46
2018-12-19T03:18:30.136Z,98479.29
2018-12-19T03:20:40.978Z,98489.09
2018-12-19T03:22:51.914Z,98487.80
2018-12-19T03:25:03.078Z,98498.00
2018-12-19T03:27:13.927Z,98495.48
2018-12-19T03:29:24.802Z,98498.38
2018-12-19T03:31:35.793Z,98502.66
2018-12-19T03:33:46.629Z,98501.50
2018-12-19T03:36:00.267Z,98499.50
2018-12-19T03:38:13.357Z,98482.86
2018-12-19T03:40:24.257Z,98482.34
2018-12-19T03:42:35.120Z,98486.70
2018-12-19T03:44:45.957Z,98483.34
2018-12-19T03:46:56.804Z,98483.75
2018-12-19T03:49:07.686Z,98491.87
2018-12-19T03:51:18.617Z,98497.50
2018-12-19T03:53:29.457Z,98494.94
2018-12-19T03:55:40.310Z,98491.87
2018-12-19T03:57:51.365Z,98494.32
2018-12-19T04:00:03.137Z,98497.98
2018-12-19T04:02:13.997Z,98496.21
2018-12-19T04:04:24.848Z,98493.98
2018-12-19T04:06:35.739Z,98488.69
2018-12-19T04:08:46.563Z,98489.95
2018-12-19T04:10:57.509Z,98478.87
2018-12-19T04:13:08.339Z,98479.95
2018-12-19T04:15:19.409Z,98476.44
2018-12-19T04:17:30.361Z,98483.66
2018-12-19T04:19:41.175Z,98487.08
2018-12-19T04:21:52.115Z,98488.69
2018-12-19T04:24:03.288Z,98493.23
2018-12-19T04:26:14.112Z,98490.55
2018-12-19T04:28:24.949Z,98487.17
2018-12-19T04:30:37.804Z,98491.97
2018-12-19T04:32:49.053Z,98491.51
2018-12-19T04:34:59.893Z,98485.81
2018-12-19T04:37:10.727Z,98489.61
2018-12-19T04:39:21.554Z,98473.66
2018-12-19T04:41:32.410Z,98484.74
2018-12-19T04:43:43.330Z,98483.45
2018-12-19T04:45:54.190Z,98480.50
2018-12-19T04:48:05.126Z,98471.42
2018-12-19T04:50:15.942Z,98484.89
2018-12-19T04:52:26.893Z,98491.91
2018-12-19T04:54:37.711Z,98496.67
2018-12-19T04:56:48.544Z,98502.16
2018-12-19T04:58:59.417Z,98496.98
2018-12-19T05:01:10.264Z,98492.95
2018-12-19T05:03:21.100Z,98494.11
2018-12-19T05:05:31.946Z,98494.17
2018-12-19T05:07:43.041Z,98497.97
2018-12-19T05:09:53.884Z,98494.48
2018-12-19T05:12:04.700Z,98498.79
2018-12-19T05:14:15.992Z,98496.34
2018-12-19T05:16:26.848Z,98486.99
2018-12-19T05:18:37.675Z,98481.48
2018-12-19T05:20:48.642Z,98481.09
2018-12-19T05:22:59.516Z,98484.48
2018-12-19T05:25:12.695Z,98481.91
2018-12-19T05:27:23.552Z,98475.41
2018-12-19T05:29:34.394Z,98467.97
2018-12-19T05:31:45.248Z,98464.55
2018-12-19T05:33:56.104Z,98469.87
2018-12-19T05:36:07.066Z,98468.32
2018-12-19T05:38:17.924Z,98474.03
2018-12-19T05:40:28.781Z,98470.70
2018-12-19T05:42:39.661Z,98472.38
2018-12-19T05:44:50.522Z,98480.07
2018-12-19T05:47:01.369Z,98473.66
2018-12-19T05:49:12.217Z,98474.31
2018-12-19T05:51:23.037Z,98476.41
2018-12-19T05:53:33.896Z,98476.87
2018-12-19T05:55:44.752Z,98483.03
2018-12-19T05:57:55.580Z,98499.25
2018-12-19T06:00:07.501Z,98487.52
2018-12-19T06:02:18.382Z,98490.21
2018-12-19T06:04:29.194Z,98483.09
2018-12-19T06:06:40.071Z,98481.11
2018-12-19T06:08:50.904Z,98494.02
2018-12-19T06:11:01.766Z,98491.91
2018-12-19T06:13:12.632Z,98481.19
2018-12-19T06:15:23.454Z,98480.22
2018-12-19T06:17:34.329Z,98496.51
2018-12-19T06:19:45.257Z,98492.59
2018-12-19T06:21:56.120Z,98498.50
2018-12-19T06:24:06.952Z,98490.28
2018-12-19T06:26:17.795Z,98496.18
2018-12-19T06:28:28.661Z,98499.64
2018-12-19T06:30:39.500Z,98493.22
2018-12-19T06:32:50.594Z,98490.16
2018-12-19T06:35:01.556Z,98501.24
2018-12-19T06:37:12.399Z,98502.08
2018-12-19T06:39:23.373Z,98498.08
2018-12-19T06:41:34.296Z,98501.93
2018-12-19T06:43:45.161Z,98505.48
2018-12-19T06:45:56.005Z,98504.70
2018-12-19T06:48:06.847Z,98507.58
2018-12-19T06:50:17.674Z,98512.72
2018-12-19T06:52:28.520Z,98514.31
2018-12-19T06:54:39.362Z,98522.86
2018-12-19T06:56:50.197Z,98525.42
2018-12-19T06:59:01.061Z,98529.40
2018-12-19T07:01:12.013Z,98529.77
2018-12-19T07:03:22.873Z,98525.47
2018-12-19T07:05:33.729Z,98532.60
2018-12-19T07:07:44.600Z,98523.09
2018-12-19T07:09:55.451Z,98522.19
2018-12-19T07:12:06.283Z,98519.75
2018-12-19T07:14:17.206Z,98520.68
2018-12-19T07:16:28.119Z,98515.16
2018-12-19T07:18:38.992Z,98511.44
2018-12-19T07:20:50.051Z,98508.57
2018-12-19T07:23:00.924Z,98507.47
2018-12-19T07:25:11.820Z,98512.62
2018-12-19T07:27:22.636Z,98511.09
2018-12-19T07:29:33.500Z,98518.86
2018-12-19T07:31:44.344Z,98522.17
2018-12-19T07:33:55.209Z,98522.77
2018-12-19T07:36:06.033Z,98521.50
2018-12-19T07:38:16.890Z,98526.62
2018-12-19T07:40:27.758Z,98529.64
2018-12-19T07:42:38.612Z,98524.42
2018-12-19T07:44:49.493Z,98531.88
2018-12-19T07:47:00.334Z,98531.69
2018-12-19T07:49:11.214Z,98538.42
2018-12-19T07:51:22.050Z,98542.63
2018-12-19T07:53:32.948Z,98539.09
2018-12-19T07:55:43.995Z,98537.24
2018-12-19T07:57:54.851Z,98547.63
2018-12-19T08:00:05.846Z,98537.72
2018-12-19T08:02:16.690Z,98539.66
2018-12-19T08:04:27.875Z,98539.24
2018-12-19T08:06:38.876Z,98542.65
2018-12-19T08:08:49.701Z,98542.05
2018-12-19T08:11:00.580Z,98535.05
2018-12-19T08:13:11.419Z,98543.28
2018-12-19T08:15:22.281Z,98540.72
2018-12-19T08:17:33.132Z,98554.37
2018-12-19T08:19:43.976Z,98546.80
2018-12-19T08:21:54.857Z,98550.23
2018-12-19T08:24:05.733Z,98557.06
2018-12-19T08:26:16.679Z,98550.18
2018-12-19T08:28:27.538Z,98553.33
2018-12-19T08:30:38.507Z,98555.89
2018-12-19T08:32:49.385Z,98552.95
2018-12-19T08:35:00.248Z,98550.02
2018-12-19T08:37:11.154Z,98551.80
2018-12-19T08:39:22.141Z,98555.16
2018-12-19T08:41:33.184Z,98553.80
2018-12-19T08:43:44.049Z,98554.95
2018-12-19T08:45:55.371Z,98554.84
2018-12-19T08:48:06.286Z,98551.85
2018-12-19T08:50:17.140Z,98550.18
2018-12-19T08:52:28.045Z,98546.33
2018-12-19T08:54:38.921Z,98554.19
2018-12-19T08:56:49.825Z,98548.34
2018-12-19T08:59:00.703Z,98548.66
2018-12-19T09:01:11.548Z,98548.97
2018-12-19T09:03:22.422Z,98557.88
2018-12-19T09:05:33.372Z,98555.31
2018-12-19T09:07:44.348Z,98555.39
2018-12-19T09:09:55.206Z,98552.36
2018-12-19T09:12:06.074Z,98557.67
2018-12-19T09:14:16.946Z,98557.67
2018-12-19T09:16:27.799Z,98552.45
2018-12-19T09:18:38.668Z,98554.50
2018-12-19T09:20:49.526Z,98551.46
2018-12-19T09:23:00.418Z,98555.23
2018-12-19T09:25:11.277Z,98552.30
2018-12-19T09:27:22.245Z,98553.45
2018-12-19T09:29:33.123Z,98548.91
2018-12-19T09:31:45.477Z,98551.09
2018-12-19T09:33:57.292Z,98548.83
2018-12-19T09:36:08.161Z,98552.63
2018-12-19T09:38:19.150Z,98548.32
2018-12-19T09:40:30.049Z,98551.56
2018-12-19T09:42:40.942Z,98542.56
2018-12-19T09:44:51.846Z,98541.59
2018-12-19T09:47:02.837Z,98544.14
2018-12-19T09:49:14.089Z,98541.51
2018-12-19T09:51:25.060Z,98544.38
2018-12-19T09:53:35.954Z,98543.94
2018-12-19T09:55:46.813Z,98540.08
2018-12-19T09:57:57.648Z,98534.08
2018-12-19T10:00:10.803Z,98547.27
2018-12-19T10:02:23.008Z,98541.20
2018-12-19T10:04:33.912Z,98538.98
2018-12-19T10:06:44.780Z,98533.45
2018-12-19T10:08:55.647Z,98537.25
2018-12-19T10:11:06.485Z,98537.31
2018-12-19T10:13:17.335Z,98539.29
2018-12-19T10:15:28.200Z,98534.06
2018-12-19T10:17:41.046Z,98529.22
2018-12-19T10:19:51.976Z,98524.74
2018-12-19T10:22:02.947Z,98518.67
2018-12-19T10:24:14.070Z,98523.45
2018-12-19T10:26:24.944Z,98515.77
2018-12-19T10:28:35.806Z,98513.31
2018-12-19T10:30:46.724Z,98519.30
2018-12-19T10:32:57.689Z,98517.86
2018-12-19T10:35:09.211Z,98510.09
2018-12-19T10:37:20.085Z,98512.12
2018-12-19T10:39:31.036Z,98508.68
2018-12-19T10:41:41.900Z,98511.19
2018-12-19T10:43:52.785Z,98509.52
2018-12-19T10:46:03.681Z,98504.08
2018-12-19T10:48:14.545Z,98496.27
2018-12-19T10:50:25.387Z,98496.30
2018-12-19T10:52:36.296Z,98499.14
2018-12-19T10:54:47.208Z,98499.89
2018-12-19T10:56:58.081Z,98493.56
2018-12-19T10:59:08.921Z,98493.02
2018-12-19T11:01:19.783Z,98485.23
2018-12-19T11:03:30.656Z,98481.22
2018-12-19T11:05:41.546Z,98481.09
2018-12-19T11:07:52.417Z,98475.30
2018-12-19T11:10:05.144Z,98474.80
2018-12-19T11:12:16.052Z,98473.16
2018-12-19T11:14:27.193Z,98462.73
2018-12-19T11:16:38.058Z,98466.04
2018-12-19T11:18:48.924Z,98469.48
2018-12-19T11:21:00.041Z,98459.50
2018-12-19T11:23:10.938Z,98462.75
2018-12-19T11:25:21.774Z,98459.63
2018-12-19T11:27:32.765Z,98452.83
2018-12-19T11:29:43.648Z,98450.80
2018-12-19T11:31:54.597Z,98452.44
2018-12-19T11:34:05.451Z,98450.98
2018-12-19T11:36:16.278Z,98442.70
2018-12-19T11:38:27.166Z,98431.36
2018-12-19T11:40:38.021Z,98438.67
2018-12-19T11:42:48.886Z,98436.72
2018-12-19T11:44:59.747Z,98435.44
2018-12-19T11:47:10.586Z,98438.39
2018-12-19T11:49:22.053Z,98433.55
2018-12-19T11:51:32.899Z,98436.41
2018-12-19T11:53:43.834Z,98429.97
2018-12-19T11:55:54.685Z,98426.48
2018-12-19T11:58:05.536Z,98426.10
2018-12-19T12:00:16.412Z,98425.13
2018-12-19T12:02:27.274Z,98426.94
2018-12-19T12:04:38.124Z,98426.48
2018-12-19T12:06:49.042Z,98424.26
2018-12-19T12:08:59.932Z,98419.69
2018-12-19T12:11:10.779Z,98412.51
2018-12-19T12:13:21.626Z,98407.70
2018-12-19T12:15:32.492Z,98416.64
2018-12-19T12:17:43.449Z,98412.67
2018-12-19T12:19:54.297Z,98408.66
2018-12-19T12:22:05.161Z,98407.48
2018-12-19T12:24:16.053Z,98412.38
2018-12-19T12:26:26.894Z,98414.01
2018-12-19T12:28:37.745Z,98417.20
2018-12-19T12:30:49.442Z,98416.25
2018-12-19T12:33:00.300Z,98416.63
2018-12-19T12:35:11.172Z,98408.97
2018-12-19T12:37:22.194Z,98413.83
2018-12-19T12:39:33.084Z,98410.03
2018-12-19T12:41:43.937Z,98410.75
2018-12-19T12:43:54.774Z,98404.09
2018-12-19T12:46:05.632Z,98394.61
2018-12-19T12:48:16.472Z,98394.53
2018-12-19T12:50:27.457Z,98393.39
2018-12-19T12:52:38.321Z,98396.84
2018-12-19T12:54:49.188Z,98392.78
2018-12-19T12:57:00.042Z,98388.84
2018-12-19T12:59:10.904Z,98390.02
2018-12-19T13:01:21.765Z,98392.10
2018-12-19T13:03:32.646Z,98400.33
2018-12-19T13:05:43.507Z,98401.73
2018-12-19T13:07:54.389Z,98387.52
2018-12-19T13:10:07.247Z,98381.91
2018-12-19T13:12:18.117Z,98383.80
2018-12-19T13:14:29.106Z,98382.82
2018-12-19T13:16:40.010Z,98374.06
2018-12-19T13:18:50.904Z,98370.91
2018-12-19T13:21:01.753Z,98369.47
2018-12-19T13:23:12.609Z,98370.67
2018-12-19T13:25:23.498Z,98362.11
2018-12-19T13:27:34.377Z,98368.89
2018-12-19T13:29:45.264Z,98369.20
2018-12-19T13:31:56.516Z,98363.61
2018-12-19T13:34:07.413Z,98357.35
2018-12-19T13:36:18.300Z,98348.66
2018-12-19T13:38:29.153Z,98347.70
2018-12-19T13:40:39.997Z,98351.42
2018-12-19T13:42:51.734Z,98344.85
2018-12-19T13:45:03.757Z,98338.28
2018-12-19T13:47:14.683Z,98331.63
2018-12-19T13:49:25.588Z,98333.21
2018-12-19T13:51:36.486Z,98328.05
2018-12-19T13:53:47.361Z,98317.85
2018-12-19T13:55:58.227Z,98321.47
2018-12-19T13:58:09.069Z,98321.02
2018-12-19T14:00:20.693Z,98320.60
2018-12-19T14:02:31.523Z,98320.67
2018-12-19T14:04:42.622Z,98311.65
2018-12-19T14:06:53.517Z,98315.77
2018-12-19T14:09:05.198Z,98311.86
2018-12-19T14:11:16.053Z,98315.58
2018-12-19T14:13:26.921Z,98306.55
2018-12-19T14:15:37.797Z,98302.50
2018-12-19T14:17:48.666Z,98302.95
2018-12-19T14:19:59.530Z,98303.86
2018-12-19T14:22:10.392Z,98304.16
2018-12-19T14:24:21.259Z,98309.76
2018-12-19T14:26:32.140Z,98299.56
2018-12-19T14:28:42.994Z,98300.59
2018-12-19T14:30:53.872Z,98299.19
2018-12-19T14:33:04.743Z,98289.25
2018-12-19T14:35:15.621Z,98292.41
2018-12-19T14:37:26.475Z,98292.60
2018-12-19T14:39:37.356Z,98290.81
2018-12-19T14:41:48.254Z,98297.64
2018-12-19T14:43:59.124Z,98304.80
2018-12-19T14:46:10.017Z,98311.17
2018-12-19T14:48:20.861Z,98306.80
2018-12-19T14:50:31.733Z,98313.62
2018-12-19T14:52:42.619Z,98310.17
2018-12-19T14:54:53.476Z,98313.62
2018-12-19T14:57:05.892Z,98305.52
2018-12-19T14:59:16.934Z,98305.63
2018-12-19T15:01:27.805Z,98304.22
2018-12-19T15:03:38.633Z,98304.59
2018-12-19T15:05:49.522Z,98303.31
2018-12-19T15:08:00.393Z,98302.81
2018-12-19T15:10:11.249Z,98292.99
2018-12-19T15:12:25.739Z,98291.58
2018-12-19T15:14:35.004Z,98291.25
2018-12-19T15:16:45.907Z,98284.68
2018-12-19T15:18:56.795Z,98289.53
2018-12-19T15:21:07.769Z,98290.95
2018-12-19T15:23:18.612Z,98284.88
2018-12-19T15:25:29.483Z,98286.75
2018-12-19T15:27:40.411Z,98281.02
2018-12-19T15:29:51.256Z,98279.72
2018-12-19T15:32:02.264Z,98279.84
2018-12-19T15:34:13.156Z,98277.27
2018-12-19T15:36:24.160Z,98278.93
2018-12-19T15:38:35.037Z,98277.27
2018-12-19T15:40:45.907Z,98275.14
2018-12-19T15:42:56.784Z,98281.20
2018-12-19T15:45:07.689Z,98283.45
2018-12-19T15:47:18.514Z,98282.62
2018-12-19T15:49:29.409Z,98284.82
2018-12-19T15:51:40.269Z,98288.83
2018-12-19T15:53:51.131Z,98279.80
2018-12-19T15:56:02.009Z,98281.13
2018-12-19T15:58:13.013Z,98280.75
2018-12-19T16:00:23.885Z,98284.74
2018-12-19T16:02:34.716Z,98279.52
2018-12-19T16:04:45.620Z,98285.13
2018-12-19T16:06:56.449Z,98281.38
2018-12-19T16:09:07.347Z,98288.23
2018-12-19T16:11:18.329Z,98284.29
2018-12-19T16:13:29.198Z,98283.83
2018-12-19T16:15:40.172Z,98285.91
2018-12-19T16:17:51.119Z,98291.52
2018-12-19T16:20:03.048Z,98286.42
2018-12-19T16:22:13.894Z,98287.26
2018-12-19T16:24:24.768Z,98287.26
2018-12-19T16:26:35.650Z,98290.38
2018-12-19T16:28:46.509Z,98286.05
2018-12-19T16:30:57.393Z,98290.29
2018-12-19T16:33:08.248Z,98284.51
2018-12-19T16:35:19.138Z,98285.84
2018-12-19T16:37:29.972Z,98291.79
2018-12-19T16:39:40.820Z,98289.13
2018-12-19T16:41:51.694Z,98292.42
2018-12-19T16:44:02.600Z,98295.08
2018-12-19T16:46:13.465Z,98296.88
2018-12-19T16:48:24.329Z,98297.91
2018-12-19T16:50:35.215Z,98300.94
2018-12-19T16:52:46.195Z,98305.77
2018-12-19T16:54:57.169Z,98313.00
2018-12-19T16:57:08.179Z,98310.30
2018-12-19T16:59:19.035Z,98312.09
2018-12-19T17:01:29.952Z,98313.84
2018-12-19T17:03:40.810Z,98315.97
2018-12-19T17:05:51.696Z,98309.52
2018-12-19T17:08:02.758Z,98313.00
2018-12-19T17:10:13.638Z,98316.87
2018-12-19T17:12:24.502Z,98319.50
2018-12-19T17:14:35.380Z,98323.82
2018-12-19T17:16:46.238Z,98325.56
2018-12-19T17:18:57.098Z,98323.44
2018-12-19T17:21:07.929Z,98322.16
2018-12-19T17:23:18.770Z,98323.44
2018-12-19T17:25:29.645Z,98324.73
2018-12-19T17:27:40.496Z,98328.53
2018-12-19T17:29:51.334Z,98326.78
2018-12-19T17:32:02.518Z,98329.70
2018-12-19T17:34:13.378Z,98331.81
2018-12-19T17:36:24.209Z,98330.61
2018-12-19T17:38:35.070Z,98331.44
2018-12-19T17:40:45.910Z,98333.11
2018-12-19T17:42:59.551Z,98330.08
2018-12-19T17:45:09.619Z,98327.57
2018-12-19T17:47:20.558Z,98325.91
2018-12-19T17:49:31.421Z,98324.66
2018-12-19T17:51:42.269Z,98330.72
2018-12-19T17:53:53.124Z,98330.84
2018-12-19T17:56:03.987Z,98329.17
2018-12-19T17:58:14.850Z,98335.62
2018-12-19T18:00:25.691Z,98346.39
2018-12-19T18:02:36.565Z,98352.43
2018-12-19T18:04:47.381Z,98349.81
2018-12-19T18:06:58.255Z,98358.88
2018-12-19T18:09:09.173Z,98361.16
2018-12-19T18:11:20.026Z,98359.45
2018-12-19T18:13:31.037Z,98357.33
2018-12-19T18:15:41.857Z,98360.32
2018-12-19T18:17:52.710Z,98353.58
2018-12-19T18:20:05.037Z,98350.95
2018-12-19T18:22:15.911Z,98351.30
2018-12-19T18:24:26.831Z,98346.17
2018-12-19T18:26:37.692Z,98352.13
2018-12-19T18:28:48.529Z,98347.80
2018-12-19T18:30:59.444Z,98351.67
2018-12-19T18:33:10.320Z,98352.13
2018-12-19T18:35:21.173Z,98345.98
2018-12-19T18:37:33.427Z,98344.20
2018-12-19T18:39:44.635Z,98339.95
2018-12-19T18:41:55.471Z,98340.25
2018-12-19T18:44:06.293Z,98334.80
2018-12-19T18:46:17.173Z,98330.72
2018-12-19T18:48:27.989Z,98324.66
2018-12-19T18:50:38.876Z,98329.70
2018-12-19T18:52:49.778Z,98330.78
2018-12-19T18:55:00.738Z,98333.66
2018-12-19T18:57:11.629Z,98336.61
2018-12-19T18:59:22.494Z,98331.08
2018-12-19T19:01:33.384Z,98334.08
2018-12-19T19:03:44.379Z,98330.16
2018-12-19T19:05:55.390Z,98329.83
2018-12-19T19:08:06.238Z,98324.22
2018-12-19T19:10:17.216Z,98325.45
2018-12-19T19:12:28.077Z,98316.35
2018-12-19T19:14:38.898Z,98322.76
2018-12-19T19:16:49.856Z,98319.27
2018-12-19T19:19:00.668Z,98318.89
2018-12-19T19:21:11.585Z,98324.88
2018-12-19T19:23:22.436Z,98324.30
2018-12-19T19:25:33.423Z,98322.30
2018-12-19T19:27:44.355Z,98323.26
2018-12-19T19:29:55.191Z,98320.67
2018-12-19T19:32:06.070Z,98323.18
2018-12-19T19:34:17.452Z,98319.89
2018-12-19T19:36:28.384Z,98313.14
2018-12-19T19:38:39.219Z,98316.67
2018-12-19T19:40:50.084Z,98313.27
2018-12-19T19:43:00.976Z,98311.84
2018-12-19T19:45:12.179Z,98311.73
2018-12-19T19:47:23.158Z,98313.14
2018-12-19T19:49:34.199Z,98311.97
2018-12-19T19:51:45.051Z,98316.17
2018-12-19T19:53:55.973Z,98317.13
2018-12-19T19:56:06.845Z,98308.36
2018-12-19T19:58:17.699Z,98305.06
2018-12-19T20:00:30.066Z,98307.53
2018-12-19T20:02:40.948Z,98300.11
2018-12-19T20:04:51.785Z,98307.84
2018-12-19T20:07:02.778Z,98307.84
2018-12-19T20:09:13.645Z,98308.22
2018-12-19T20:11:24.501Z,98318.55
2018-12-19T20:13:35.390Z,98322.48
2018-12-19T20:15:46.317Z,98315.59
2018-12-19T20:17:57.189Z,98316.87
2018-12-19T20:20:08.142Z,98321.91
2018-12-19T20:22:19.093Z,98319.17
2018-12-19T20:24:30.023Z,98314.88
2018-12-19T20:26:40.868Z,98313.19
2018-12-19T20:28:51.718Z,98313.14
2018-12-19T20:31:02.968Z,98317.27
2018-12-19T20:33:13.801Z,98316.02
2018-12-19T20:35:24.685Z,98321.59
2018-12-19T20:37:35.554Z,98322.42
2018-12-19T20:39:46.452Z,98321.02
2018-12-19T20:41:57.281Z,98318.61
2018-12-19T20:44:08.117Z,98309.53
2018-12-19T20:46:19.125Z,98309.53
2018-12-19T20:48:30.000Z,98305.20
2018-12-19T20:50:40.833Z,98306.37
2018-12-19T20:52:51.721Z,98301.13
2018-12-19T20:55:03.577Z,98310.62
2018-12-19T20:57:14.437Z,98307.13
2018-12-19T20:59:25.291Z,98311.41
2018-12-19T21:01:36.225Z,98304.67
2018-12-19T21:03:47.077Z,98316.48
2018-12-19T21:05:57.885Z,98320.10
2018-12-19T21:08:08.752Z,98312.94
2018-12-19T21:10:19.618Z,98312.48
2018-12-19T21:12:30.532Z,98315.98
2018-12-19T21:14:41.352Z,98314.35
2018-12-19T21:16:58.264Z,98310.94
2018-12-19T21:19:09.169Z,98311.44
2018-12-19T21:21:20.001Z,98310.02
2018-12-19T21:23:30.891Z,98302.35
2018-12-19T21:25:41.755Z,98306.30
2018-12-19T21:27:52.617Z,98303.43
2018-12-19T21:30:06.019Z,98307.18
2018-12-19T21:32:16.872Z,98307.05
2018-12-19T21:34:27.863Z,98310.65
2018-12-19T21:36:38.714Z,98302.73
2018-12-19T21:38:49.728Z,98304.06
2018-12-19T21:41:00.642Z,98303.23
2018-12-19T21:43:11.499Z,98296.06
2018-12-19T21:45:22.377Z,98292.58
2018-12-19T21:47:33.289Z,98291.41
2018-12-19T21:49:44.297Z,98293.11
2018-12-19T21:51:55.191Z,98298.31
2018-12-19T21:54:06.065Z,98295.36
2018-12-19T21:56:17.008Z,98296.19
2018-12-19T21:58:27.979Z,98297.59
2018-12-19T22:00:40.018Z,98291.27
2018-12-19T22:02:50.864Z,98292.39
2018-12-19T22:05:01.778Z,98289.03
2018-12-19T22:07:12.752Z,98290.39
2018-12-19T22:09:23.765Z,98288.20
2018-12-19T22:11:34.857Z,98279.96
2018-12-19T22:13:45.801Z,98276.40
2018-12-19T22:15:56.758Z,98273.11
2018-12-19T22:18:13.651Z,98267.50
2018-12-19T22:20:24.615Z,98281.17
2018-12-19T22:22:35.618Z,98275.56
2018-12-19T22:24:46.525Z,98273.11
2018-12-19T22:26:57.540Z,98275.56
2018-12-19T22:29:08.456Z,98279.05
2018-12-19T22:31:19.383Z,98281.30
2018-12-19T22:33:30.237Z,98293.80
2018-12-19T22:35:41.127Z,98294.76
2018-12-19T22:37:52.084Z,98293.84
2018-12-19T22:40:05.761Z,98292.97
2018-12-19T22:42:16.652Z,98292.33
2018-12-19T22:44:27.587Z,98289.48
2018-12-19T22:46:38.578Z,98289.14
2018-12-19T22:48:49.460Z,98286.11
2018-12-19T22:51:00.380Z,98296.00
2018-12-19T22:53:11.363Z,98292.89
2018-12-19T22:55:22.258Z,98296.05
2018-12-19T22:57:33.126Z,98293.23
2018-12-19T22:59:43.996Z,98293.23
2018-12-19T23:02:01.098Z,98289.62
2018-12-19T23:04:12.129Z,98293.70
2018-12-19T23:06:23.088Z,98290.22
2018-12-19T23:08:34.058Z,98293.44
2018-12-19T23:10:44.965Z,98297.64
2018-12-19T23:12:55.828Z,98286.87
2018-12-19T23:15:06.910Z,98291.52
2018-12-19T23:17:23.990Z,98289.90
2018-12-19T23:19:35.081Z,98293.12
2018-12-19T23:21:46.074Z,98287.08
2018-12-19T23:23:57.016Z,98292.11
2018-12-19T23:26:07.868Z,98290.83
2018-12-19T23:28:18.931Z,98292.49
2018-12-19T23:30:29.906Z,98298.03
2018-12-19T23:32:41.011Z,98299.77
2018-12-19T23:34:52.057Z,98301.64
2018-12-19T23:37:02.913Z,98306.30
2018-12-19T23:39:13.761Z,98306.68
2018-12-19T23:41:24.723Z,98307.13
2018-12-19T23:43:35.588Z,98311.64
2018-12-19T23:45:46.615Z,98308.09
2018-12-19T23:47:57.530Z,98304.34
2018-12-19T23:50:08.570Z,98309.13
2018-12-19T23:52:19.636Z,98303.96
2018-12-19T23:54:30.622Z,98306.09
2018-12-19T23:56:41.589Z,98306.02
2018-12-19T23:58:52.546Z,98299.38
